Fernando Martinez

チーフスカウト - Atletico Venezuela
2 9月 2027
木曜日
処理

性格

適応力 (16) 野心 (8) 物議 (7) 忠誠心 (13) プレッシャー耐性 (8) プロ意識 (9) スポーツマンシップ (18) 気質 (17)

プロフィール

指導スタイル 民主型
ライセンス 大陸B級
決断力 8
人材管理 10
モチベーション 3
規律 10
仕事満足度
100%
疲労度
0%
役職 チーフスカウト
給与 37.5K 週給
契約 14.03.2030

パフォーマンス

態度 良い
トレーニング効果
33%
選手育成
45%
怪我予防
25%
戦術実行
20%

最近の出来事

補強会議に出席 7日前
獲得候補を推薦 7日前
補強会議に出席 14日前
獲得候補を推薦 14日前
補強会議に出席 21日前
獲得候補を推薦 21日前
補強会議に出席 28日前
獲得候補を推薦 28日前

監視中

125
選手 クラブ 状態 能力 自信 視察済み 最終確認 最新投票
Naygers Flores Deportivo La Guaira 交渉中 86 / 86 69% 1 01.06.2027 承認
Sergio Carrasco Cobresal アクティブ 98 / 96 40% 1 01.06.2027 -
Sebastián Cocimano Nueva Chicago アクティブ 108 / 110 40% 1 01.06.2027 -
Alexander Díaz Deportivo Riestra アクティブ 114 / 116 40% 1 01.06.2027 -
Louis Appéré Cambridge United アクティブ 93 / 101 40% 1 27.11.2026 -
Matty Stevens AFC Wimbledon アクティブ 105 / 96 40% 1 27.11.2026 -
Lee Bonis Chesterfield アクティブ 95 / 116 40% 2 26.11.2026 -
Jonás Luna Santa Clara アクティブ 118 / 108 40% 1 26.11.2026 -
Edarlyn Reyes Arsenal Tula アクティブ 120 / 120 40% 4 25.11.2026 -
Vyacheslav Grulev Nizhniy Novgorod アクティブ 107 / 112 40% 3 25.11.2026 -
Anderson Gutiérrez Chelyabinsk アクティブ 96 / 97 40% 1 25.11.2026 -
Nathan Ordaz Metalist アクティブ 100 / 104 40% 1 24.11.2026 -
Sonny Perkins Leyton Orient アクティブ 84 / 100 40% 1 24.11.2026 -
Alexis Domínguez Chacarita Juniors アクティブ 106 / 108 40% 2 23.11.2026 -
Fabricio Rojas Gimnasia y Tiro アクティブ 107 / 115 40% 6 23.11.2026 -
Lucio Castillo Colegiales アクティブ 113 / 107 40% 2 21.11.2026 -
Breel Embolo Atlanta United FC アクティブ 147 / 133 40% 5 21.11.2026 -
Marcos Cuenca Zaragoza アクティブ 104 / 122 40% 4 20.11.2026 -
Isaac Matondo Koper アクティブ 98 / 90 40% 1 20.11.2026 -
Sebastián Ybares Neftekhimik アクティブ 92 / 98 40% 1 17.11.2026 -
Mauro Rodrigues Botev Plovdiv アクティブ 107 / 97 40% 1 16.11.2026 -
Ekain Orobengoa Real Sociedad アクティブ 94 / 91 40% 3 14.11.2026 -
Lucas Angelini Temperley アクティブ 120 / 116 40% 1 14.11.2026 -
Gilson Benchimol Akron アクティブ 117 / 113 40% 1 14.11.2026 -
Facundo Pons San Martín アクティブ 121 / 109 40% 1 14.11.2026 情報不足
Alexandr Saplinov Volga アクティブ 99 / 95 40% 1 10.11.2026 -
Johnly Yfeko Exeter City アクティブ 102 / 103 40% 1 10.11.2026 -
Job Ochieng Real Sociedad アクティブ 115 / 94 40% 3 08.11.2026 -
Eduardo Armenta Ufa アクティブ 92 / 91 40% 1 07.11.2026 -
Kenan Dervišagić Floriana アクティブ 108 / 103 40% 2 06.11.2026 -
Axel Pérez NK Domzale アクティブ 96 / 114 40% 1 06.11.2026 -
Fabricio Oviedo Rosario Central アクティブ 100 / 117 40% 1 04.11.2026 -
Stephen Humphrys Bradford City アクティブ 102 / 96 40% 2 03.11.2026 -
Sergio Riffo NK Zavrc アクティブ 104 / 103 40% 3 01.11.2026 -
Kamran Aliev SKA Khabarovsk アクティブ 111 / 106 40% 1 30.10.2026 -
Jhon Flor Sokol アクティブ 78 / 105 40% 1 30.10.2026 -
Rodrigo González Aldosivi アクティブ 125 / 120 40% 1 30.10.2026 -
Juan Manuel Jorge Defensor Sporting アクティブ 109 / 109 40% 1 30.10.2026 -
Julián Palacios Unión de Santa Fe アクティブ 112 / 107 40% 2 29.10.2026 -
Esteven Salguero Patriotas アクティブ 105 / 99 40% 2 28.10.2026 -
Camilo Rey Domenech Boca Juniors アクティブ 113 / 131 40% 1 28.10.2026 -
Marcus Browne AFC Wimbledon アクティブ 112 / 89 40% 2 27.10.2026 -
Mario García Racing Santander アクティブ 114 / 128 40% 2 27.10.2026 -
Lautaro Ríos Banfield アクティブ 110 / 119 40% 1 27.10.2026 -
Luka Kurtovic NK Domzale アクティブ 121 / 113 40% 4 26.10.2026 -
Yeangel Montero Naxxar Lions アクティブ 101 / 118 40% 1 26.10.2026 -
Aldahir Pérez Tijuana アクティブ 102 / 122 40% 1 25.10.2026 -
Mauro Smarra Deportivo Riestra アクティブ 106 / 108 40% 1 24.10.2026 -
Nahuel Gallardo San Martín アクティブ 114 / 105 40% 1 24.10.2026 -
Milton Castagna Neftekhimik アクティブ 104 / 91 40% 1 23.10.2026 -
Sam Nombe Milton Keynes Dons アクティブ 119 / 99 40% 2 21.10.2026 -
Gaspar Duarte Rosario Central アクティブ 114 / 115 40% 2 20.10.2026 -
Robert Murić Floriana アクティブ 101 / 117 40% 1 20.10.2026 -
Diego Valencia Universidad Catolica アクティブ 110 / 105 40% 3 19.10.2026 -
Martin Sekulić Ural アクティブ 116 / 109 40% 3 19.10.2026 -
Milan Tučić ND Gorica アクティブ 95 / 107 40% 1 19.10.2026 -
Gabriel Jesus Barcelona アクティブ 165 / 162 40% 6 18.10.2026 -
Diego Méndez Tacuarembo アクティブ 85 / 87 40% 5 17.10.2026 -
Ángel Stringa Deportivo Riestra アクティブ 98 / 109 40% 4 17.10.2026 -
Facundo Pimienta Atlético Tucumán アクティブ 89 / 101 40% 1 15.10.2026 -
Joaquín Rivero Instituto アクティブ 87 / 92 40% 3 13.10.2026 -
Thiago Ponce Rosario Central アクティブ 97 / 101 40% 1 12.10.2026 -
Ignacio Sabatini Gimnasia y Esgrima アクティブ 100 / 109 40% 1 10.10.2026 -
Gorka Gorosabel Real Sociedad アクティブ 99 / 130 40% 1 09.10.2026 -
Vladimir Khubulov Dinamo Makhachkala アクティブ 104 / 123 40% 1 09.10.2026 -
Manprit Sarkaria Austria Wien アクティブ 126 / 129 40% 1 08.10.2026 -
Luis Rojas Universidad de Concepcion アクティブ 92 / 93 40% 2 02.10.2026 -
Cristhofer Mesías Universidad de Concepcion アクティブ 95 / 109 40% 1 30.09.2026 -
Juan Salas Patronato アクティブ 113 / 117 40% 1 30.09.2026 -
Mariano Bracamonte Deportivo Riestra アクティブ 113 / 116 40% 2 29.09.2026 -
Kyle Joseph Middlesbrough アクティブ 104 / 113 40% 2 26.09.2026 -
Bojan Radulović Huddersfield Town アクティブ 117 / 101 40% 1 25.09.2026 -
Luca Babino Huracán アクティブ 115 / 113 40% 1 25.09.2026 -
Amadou Diawara Leganés アクティブ 112 / 122 40% 1 25.09.2026 -
Carlos Rosel Grodig アクティブ 92 / 98 40% 1 23.09.2026 -
Lautaro Mora Huracán アクティブ 102 / 121 40% 1 23.09.2026 -
Lewis McCann Fleetwood Town アクティブ 98 / 102 40% 1 21.09.2026 -
Lautaro Quiroga Defensa y Justicia アクティブ 97 / 108 40% 1 21.09.2026 -
Alexei Dominguez Pachuca アクティブ 101 / 96 40% 1 17.09.2026 -
Tomás Orqueida Mattersburg アクティブ 108 / 96 40% 1 17.09.2026 -
David Barrero Nizhniy Novgorod アクティブ 95 / 83 40% 1 16.09.2026 -
Duván Mósquera Aguilas Doradas アクティブ 111 / 108 40% 1 16.09.2026 -
Facundo Pérez Juventud アクティブ 96 / 105 40% 1 15.09.2026 -
Lander Astiazarán Real Sociedad アクティブ 113 / 111 40% 1 15.09.2026 -
Galo Galarza Estudiantes アクティブ 91 / 96 40% 1 15.09.2026 -
Juan Román Zarza BK Hacken アクティブ 90 / 88 40% 1 14.09.2026 -
Maximo Ingravidi Colón アクティブ 95 / 113 40% 1 13.09.2026 -
Bruno Hernández Cerro Largo アクティブ 91 / 97 40% 1 11.09.2026 -
Alexis Dulón Huracán アクティブ 87 / 91 40% 1 11.09.2026 -
Tomás Romero Unión de Santa Fe アクティブ 91 / 101 40% 1 11.09.2026 -
Agustín Páez Maipú アクティブ 100 / 92 40% 2 01.09.2026 -
Cristhian Medina Dinamo Brest アクティブ 86 / 88 40% 1 01.09.2026 -
Marcos Camarda Santiago Wanderers アクティブ 100 / 104 40% 4 31.08.2026 -
Agustín Zabaleta Chaco For Ever アクティブ 95 / 88 40% 1 31.08.2026 -
Gonzalo Tapia Palestino アクティブ 100 / 101 40% 1 31.08.2026 -
Agustín Fernández NK Zavrc アクティブ 84 / 92 40% 1 30.08.2026 -
Richard Celis Zamora アクティブ 100 / 117 40% 1 30.08.2026 -
Jandro Orellana Cádiz アクティブ 118 / 104 40% 1 30.08.2026 -
Gonzalo Larrazábal Deportivo Maldonado アクティブ 94 / 90 40% 1 28.08.2026 -
Gonzalo Aguirre Cienciano アクティブ 93 / 96 40% 1 28.08.2026 -
Jeriel De Santis Caracas アクティブ 99 / 95 40% 1 27.08.2026 -
Adalberto Peñaranda Deportivo Tachira アクティブ 113 / 105 40% 2 26.08.2026 -
Martín Garnerone Estudiantes アクティブ 120 / 110 40% 1 26.08.2026 -
Junior Paredes Trujillanos アクティブ 92 / 107 40% 1 25.08.2026 -
Kavier Ortiz Metropolitanos アクティブ 99 / 103 40% 1 25.08.2026 -
Francisco Galván Deportivo Municipal アクティブ 103 / 99 40% 2 18.08.2026 -
Tadeo Polli San Martín アクティブ 92 / 88 40% 1 18.08.2026 -
Tobías Bovone Deportivo Pereira アクティブ 114 / 109 40% 1 16.08.2026 -
Gerónimo Tomasetti Temperley アクティブ 112 / 115 40% 1 16.08.2026 -
Tomás Galván River Plate アクティブ 118 / 115 40% 1 15.08.2026 -
Franco Sivetti Gimnasia y Tiro アクティブ 113 / 102 40% 1 15.08.2026 -
Jules-Anthony Vilsaint Toronto FC アクティブ 106 / 105 40% 1 12.08.2026 -
Ramiro Ruiz Rodríguez Atlético Tucumán アクティブ 125 / 112 40% 1 11.08.2026 -
Bruno Gomes Valletta アクティブ 85 / 108 40% 1 10.08.2026 -
Hakeeb Adelakun Doncaster Rovers アクティブ 98 / 117 40% 1 10.08.2026 -
Joaquín Zappacosta Morón アクティブ 86 / 87 40% 1 09.08.2026 -
Cristian Núñez Huracán アクティブ 107 / 114 40% 1 06.08.2026 -
Jano Franco Independiente Rivadavia アクティブ 92 / 82 40% 1 06.08.2026 -
Jeremy Rafanello Philadelphia Union アクティブ 93 / 101 40% 1 05.08.2026 -
Alassana Jatta Notts County アクティブ 105 / 119 40% 2 04.08.2026 -
Elías Ovelar Dinamo Brest アクティブ 96 / 83 40% 1 04.08.2026 -
Martín Pino Godoy Cruz アクティブ 114 / 106 40% 1 02.08.2026 -
Joe Abrigo Palestino アクティブ 118 / 115 40% 1 02.08.2026 -
David Barbona Defensa y Justicia アクティブ 120 / 113 40% 1 01.08.2026 -
Pablo Durán Celta アクティブ 124 / 122 40% 1 01.08.2026 -